Spurgeon, North Carolina
Current Conditions -  °F | °C
As of 12:15 AM on Wednesday 26 Nov 2014 (Local Time) from KUKF Reporting Station
Light Rain Light Rain  
Wind Chill: 43°   Ceiling: 5000
Heat Index: 43°   Visibility: 10mi
Dew Point: 41°   Wind: 3mph
Humidity: 93%   Direction: 10°N
Pressure: 30.12"   Gusts: NA
Location:  36.1997°N, 81.0764°W
Report Text: KUKF 260515Z AUTO 01003KT 10SM -RA OVC050 06/05 A3012 RMK AO2 P0001
Loading
Personal Weather Stations






























Interactive Weather Map New forecast layout! Learn more

10-Day Weather Forecast

Advertisements
Track Severe Weather on mobile